Flight Track Log - Related Links

Times and Time Zones

All times are in EDT time to prevent confusion due to time zone crossing. See the SET1696 flight status page for this flight to view local times or setup timezone preferences in your user account.

Time Position Orientation Groundspeed Altitude Reporting Facility
EDT Latitude Longitude Course Direction KTS MPH feet Rate Location/Type
Sat 08:51:00 PM 37.0362 140.0119 240° Southwest  Level Estimated
Sat 08:52:00 PM 36.9882 139.9075 240° Southwest  Level Estimated
Sat 08:53:00 PM 36.9401 139.8033 240° Southwest  Level Estimated
Sat 08:54:00 PM 36.8919 139.6992 240° Southwest  Level Estimated
Sat 08:55:00 PM 36.8436 139.5952 240° Southwest  Level Estimated
Sat 08:56:00 PM 36.7952 139.4914 240° Southwest  Level Estimated
Sat 08:57:00 PM 36.7467 139.3877 240° Southwest  Level Estimated
Sat 08:58:00 PM 36.6981 139.2841 240° Southwest  Level Estimated
Sat 08:59:00 PM 36.6494 139.1806 240° Southwest  Level Estimated
Sat 09:00:00 PM 36.6007 139.0773 240° Southwest  Level Estimated
Sat 09:01:00 PM 36.5518 138.9741 240° Southwest  Level Estimated
Sat 09:02:00 PM 36.5029 138.8711 239° Southwest  Level Estimated
Sat 09:03:00 PM 36.4539 138.7682 239° Southwest  Level Estimated
Sat 09:04:00 PM 36.4048 138.6654 239° Southwest  Level Estimated
Sat 09:05:00 PM 36.3556 138.5627 239° Southwest  Level Estimated
Sat 09:06:00 PM 36.3063 138.4602 239° Southwest  Level Estimated
Sat 09:07:00 PM 36.2569 138.3578 239° Southwest  Level Estimated
Sat 09:08:00 PM 36.2075 138.2555 239° Southwest  Level Estimated
Sat 09:09:00 PM 36.1579 138.1533 239° Southwest  Level Estimated
Sat 09:10:00 PM 36.1083 138.0513 239° Southwest  Level Estimated
Sat 09:11:00 PM 36.0586 137.9494 239° Southwest  Level Estimated
Sat 09:12:00 PM 36.0088 137.8477 239° Southwest  Level Estimated
Sat 09:13:00 PM 35.9589 137.7460 239° Southwest  Level Estimated
Sat 09:14:00 PM 35.9089 137.6445 239° Southwest  Level Estimated
Sat 09:15:00 PM 35.8589 137.5432 239° Southwest  Level Estimated
Sat 09:16:00 PM 35.8087 137.4419 239° Southwest  Level Estimated
Sat 09:17:00 PM 35.7585 137.3408 239° Southwest  Level Estimated
Sat 09:18:00 PM 35.7082 137.2398 238° Southwest  Level Estimated
Sat 09:19:00 PM 35.6578 137.1389 238° Southwest  Level Estimated
Sat 09:20:00 PM 35.6073 137.0382 238° Southwest  Level Estimated
Sat 09:21:00 PM 35.5567 136.9376 238° Southwest  Level Estimated
Sat 09:22:00 PM 35.5061 136.8371 238° Southwest  Level Estimated
Sat 09:23:00 PM 35.4553 136.7368 238° Southwest  Level Estimated
Sat 09:24:00 PM 35.4045 136.6365 238° Southwest  Level Estimated
Sat 09:25:00 PM 35.3536 136.5364 238° Southwest  Level Estimated
Sat 09:26:00 PM 35.3026 136.4364 238° Southwest  Level Estimated
Sat 09:27:00 PM 35.2516 136.3366 238° Southwest  Level Estimated
Sat 09:28:00 PM 35.2004 136.2369 238° Southwest  Level Estimated
Sat 09:29:00 PM 35.1492 136.1373 238° Southwest  Level Estimated
Sat 09:30:00 PM 35.0979 136.0378 238° Southwest  Level Estimated
Sat 09:31:00 PM 35.0465 135.9385 238° Southwest  Level Estimated
Sat 09:32:00 PM 34.9950 135.8392 238° Southwest  Level Estimated
Sat 09:33:00 PM 34.9435 135.7401 238° Southwest  Level Estimated
Sat 09:34:00 PM 34.8918 135.6412 238° Southwest  Level Estimated
Sat 09:35:00 PM 34.8401 135.5423 238° Southwest  Level Estimated
Sat 09:36:00 PM 34.7883 135.4436 237° Southwest  Level Estimated
Sat 09:37:00 PM 34.7855 135.4382 237° Southwest  Level Estimated
Sat 09:38:00 PM 34.7855 135.4382 North  Level Estimated
Sat 09:39:00 PM 34.7855 135.4382 North  Level Estimated
Sat 09:40:00 PM 34.7855 135.4382 North  Level Estimated
Sat 09:41:00 PM 34.7855 135.4382 North  Level Estimated
Sat 09:42:00 PM 34.7855 135.4382 North  Level Estimated
Sat 09:43:00 PM 34.7855 135.4382 North  Level Estimated
Sat 09:44:00 PM 34.7855 135.4382 North  Level Estimated
Sat 09:45:00 PM 34.7855 135.4382 North  Level Estimated
Sat 09:46:00 PM 34.7855 135.4382 North  Level Estimated
Sat 09:47:00 PM 34.7855 135.4382 North  Level Estimated

Login

Don't have an account? Register now (free) for customized features, flight alerts, and more!